sensor_id;sensor_type;location;lat;lon;timestamp;P1;durP1;ratioP1;P2;durP2;ratioP2
17566;SDS011;8901;52.088;5.084;2023-07-24T00:01:38;3.90;;;3.50;;
17566;SDS011;8901;52.088;5.084;2023-07-24T00:04:09;3.40;;;3.10;;
17566;SDS011;8901;52.088;5.084;2023-07-24T00:06:40;3.53;;;3.23;;
17566;SDS011;8901;52.088;5.084;2023-07-24T00:09:09;5.10;;;3.80;;
17566;SDS011;8901;52.088;5.084;2023-07-24T00:11:38;4.00;;;3.60;;
17566;SDS011;8901;52.088;5.084;2023-07-24T00:14:06;3.85;;;3.35;;
17566;SDS011;8901;52.088;5.084;2023-07-24T00:16:33;6.28;;;3.70;;
17566;SDS011;8901;52.088;5.084;2023-07-24T00:19:01;3.40;;;3.10;;
17566;SDS011;8901;52.088;5.084;2023-07-24T00:21:31;4.75;;;3.40;;
17566;SDS011;8901;52.088;5.084;2023-07-24T00:24:00;3.38;;;3.08;;
17566;SDS011;8901;52.088;5.084;2023-07-24T00:26:27;3.55;;;3.25;;
17566;SDS011;8901;52.088;5.084;2023-07-24T00:28:54;3.97;;;3.58;;
17566;SDS011;8901;52.088;5.084;2023-07-24T00:31:22;3.97;;;3.50;;
17566;SDS011;8901;52.088;5.084;2023-07-24T00:33:49;3.83;;;3.38;;
17566;SDS011;8901;52.088;5.084;2023-07-24T00:36:16;3.55;;;3.25;;
17566;SDS011;8901;52.088;5.084;2023-07-24T00:42:02;3.33;;;3.03;;
17566;SDS011;8901;52.088;5.084;2023-07-24T00:50:17;4.43;;;3.63;;
17566;SDS011;8901;52.088;5.084;2023-07-24T00:58:21;3.37;;;3.07;;
17566;SDS011;8901;52.088;5.084;2023-07-24T01:03:52;3.83;;;3.43;;
17566;SDS011;8901;52.088;5.084;2023-07-24T01:09:23;3.77;;;3.47;;
17566;SDS011;8901;52.088;5.084;2023-07-24T01:14:57;4.00;;;3.60;;
17566;SDS011;8901;52.088;5.084;2023-07-24T01:17:26;4.75;;;3.17;;
17566;SDS011;8901;52.088;5.084;2023-07-24T01:25:59;4.05;;;3.00;;
17566;SDS011;8901;52.088;5.084;2023-07-24T01:31:22;4.80;;;3.80;;
17566;SDS011;8901;52.088;5.084;2023-07-24T01:33:58;3.28;;;2.88;;
17566;SDS011;8901;52.088;5.084;2023-07-24T01:36:25;3.93;;;3.53;;
17566;SDS011;8901;52.088;5.084;2023-07-24T01:41:40;3.80;;;3.40;;
17566;SDS011;8901;52.088;5.084;2023-07-24T01:53:08;4.78;;;3.50;;
17566;SDS011;8901;52.088;5.084;2023-07-24T01:58:45;3.67;;;3.33;;
17566;SDS011;8901;52.088;5.084;2023-07-24T02:01:24;3.40;;;3.10;;
17566;SDS011;8901;52.088;5.084;2023-07-24T02:03:58;4.35;;;2.80;;
17566;SDS011;8901;52.088;5.084;2023-07-24T02:06:25;3.30;;;3.00;;
17566;SDS011;8901;52.088;5.084;2023-07-24T02:08:57;3.53;;;3.22;;
17566;SDS011;8901;52.088;5.084;2023-07-24T02:11:24;4.30;;;3.47;;
17566;SDS011;8901;52.088;5.084;2023-07-24T02:13:53;5.43;;;3.22;;
17566;SDS011;8901;52.088;5.084;2023-07-24T02:16:20;3.88;;;3.22;;
17566;SDS011;8901;52.088;5.084;2023-07-24T02:18:47;3.58;;;3.10;;
17566;SDS011;8901;52.088;5.084;2023-07-24T02:21:14;4.15;;;3.60;;
17566;SDS011;8901;52.088;5.084;2023-07-24T02:23:41;3.53;;;3.22;;
17566;SDS011;8901;52.088;5.084;2023-07-24T02:26:09;2.90;;;2.58;;
17566;SDS011;8901;52.088;5.084;2023-07-24T02:28:37;4.97;;;3.17;;
17566;SDS011;8901;52.088;5.084;2023-07-24T02:31:06;4.17;;;3.43;;
17566;SDS011;8901;52.088;5.084;2023-07-24T02:33:33;3.40;;;3.10;;
17566;SDS011;8901;52.088;5.084;2023-07-24T02:36:01;3.83;;;3.40;;
17566;SDS011;8901;52.088;5.084;2023-07-24T02:38:28;4.30;;;3.72;;
17566;SDS011;8901;52.088;5.084;2023-07-24T02:43:59;4.32;;;3.63;;
17566;SDS011;8901;52.088;5.084;2023-07-24T02:46:28;4.22;;;3.10;;
17566;SDS011;8901;52.088;5.084;2023-07-24T02:54:50;4.72;;;3.05;;
17566;SDS011;8901;52.088;5.084;2023-07-24T02:57:17;6.23;;;3.57;;
17566;SDS011;8901;52.088;5.084;2023-07-24T02:59:44;4.57;;;3.63;;
17566;SDS011;8901;52.088;5.084;2023-07-24T03:02:13;4.10;;;3.40;;
17566;SDS011;8901;52.088;5.084;2023-07-24T03:04:40;4.97;;;3.50;;
17566;SDS011;8901;52.088;5.084;2023-07-24T03:07:07;4.93;;;3.70;;
17566;SDS011;8901;52.088;5.084;2023-07-24T03:09:34;5.57;;;4.18;;
17566;SDS011;8901;52.088;5.084;2023-07-24T03:12:02;6.88;;;4.00;;
17566;SDS011;8901;52.088;5.084;2023-07-24T03:14:29;4.60;;;4.18;;
17566;SDS011;8901;52.088;5.084;2023-07-24T03:16:56;7.68;;;4.30;;
17566;SDS011;8901;52.088;5.084;2023-07-24T03:19:25;5.82;;;4.30;;
17566;SDS011;8901;52.088;5.084;2023-07-24T03:21:52;4.65;;;4.03;;
17566;SDS011;8901;52.088;5.084;2023-07-24T03:24:19;4.90;;;4.40;;
17566;SDS011;8901;52.088;5.084;2023-07-24T03:26:47;5.15;;;4.10;;
17566;SDS011;8901;52.088;5.084;2023-07-24T03:29:14;6.22;;;3.78;;
17566;SDS011;8901;52.088;5.084;2023-07-24T03:31:41;4.53;;;4.00;;
17566;SDS011;8901;52.088;5.084;2023-07-24T03:34:08;4.10;;;3.70;;
17566;SDS011;8901;52.088;5.084;2023-07-24T03:36:37;4.13;;;3.73;;
17566;SDS011;8901;52.088;5.084;2023-07-24T03:39:06;5.60;;;4.50;;
17566;SDS011;8901;52.088;5.084;2023-07-24T03:41:33;4.72;;;4.07;;
17566;SDS011;8901;52.088;5.084;2023-07-24T03:44:00;5.80;;;4.32;;
17566;SDS011;8901;52.088;5.084;2023-07-24T03:46:28;4.70;;;3.85;;
17566;SDS011;8901;52.088;5.084;2023-07-24T03:48:55;4.18;;;3.72;;
17566;SDS011;8901;52.088;5.084;2023-07-24T03:51:22;5.68;;;4.38;;
17566;SDS011;8901;52.088;5.084;2023-07-24T03:53:51;5.00;;;4.50;;
17566;SDS011;8901;52.088;5.084;2023-07-24T03:56:18;3.95;;;3.65;;
17566;SDS011;8901;52.088;5.084;2023-07-24T03:58:45;4.23;;;3.80;;
17566;SDS011;8901;52.088;5.084;2023-07-24T04:01:12;5.17;;;4.17;;
17566;SDS011;8901;52.088;5.084;2023-07-24T04:03:40;4.60;;;3.78;;
17566;SDS011;8901;52.088;5.084;2023-07-24T04:06:07;4.97;;;4.45;;
17566;SDS011;8901;52.088;5.084;2023-07-24T04:08:34;5.15;;;4.65;;
17566;SDS011;8901;52.088;5.084;2023-07-24T04:13:50;5.30;;;4.28;;
17566;SDS011;8901;52.088;5.084;2023-07-24T04:16:17;5.50;;;4.30;;
17566;SDS011;8901;52.088;5.084;2023-07-24T04:18:44;6.65;;;4.40;;
17566;SDS011;8901;52.088;5.084;2023-07-24T04:21:11;5.40;;;4.70;;
17566;SDS011;8901;52.088;5.084;2023-07-24T04:23:38;7.63;;;4.97;;
17566;SDS011;8901;52.088;5.084;2023-07-24T04:26:06;5.25;;;4.63;;
17566;SDS011;8901;52.088;5.084;2023-07-24T04:28:33;5.65;;;4.25;;
17566;SDS011;8901;52.088;5.084;2023-07-24T04:31:01;4.43;;;3.95;;
17566;SDS011;8901;52.088;5.084;2023-07-24T04:33:29;5.80;;;4.03;;
17566;SDS011;8901;52.088;5.084;2023-07-24T04:35:56;5.68;;;4.38;;
17566;SDS011;8901;52.088;5.084;2023-07-24T04:38:23;4.45;;;3.90;;
17566;SDS011;8901;52.088;5.084;2023-07-24T04:40:50;6.00;;;5.15;;
17566;SDS011;8901;52.088;5.084;2023-07-24T04:43:18;5.40;;;4.45;;
17566;SDS011;8901;52.088;5.084;2023-07-24T04:45:45;5.47;;;4.28;;
17566;SDS011;8901;52.088;5.084;2023-07-24T04:48:13;6.70;;;4.68;;
17566;SDS011;8901;52.088;5.084;2023-07-24T04:50:41;5.93;;;4.45;;
17566;SDS011;8901;52.088;5.084;2023-07-24T04:53:08;6.88;;;5.07;;
17566;SDS011;8901;52.088;5.084;2023-07-24T04:55:35;7.20;;;5.65;;
17566;SDS011;8901;52.088;5.084;2023-07-24T04:58:02;7.63;;;5.40;;
17566;SDS011;8901;52.088;5.084;2023-07-24T05:00:30;6.13;;;5.00;;
17566;SDS011;8901;52.088;5.084;2023-07-24T05:02:57;5.32;;;4.25;;
17566;SDS011;8901;52.088;5.084;2023-07-24T05:05:25;7.18;;;4.40;;
17566;SDS011;8901;52.088;5.084;2023-07-24T05:07:53;7.07;;;5.28;;
17566;SDS011;8901;52.088;5.084;2023-07-24T05:10:20;6.50;;;4.90;;
17566;SDS011;8901;52.088;5.084;2023-07-24T05:12:47;7.43;;;4.93;;
17566;SDS011;8901;52.088;5.084;2023-07-24T05:15:14;6.68;;;5.00;;
17566;SDS011;8901;52.088;5.084;2023-07-24T05:17:42;7.03;;;4.90;;
17566;SDS011;8901;52.088;5.084;2023-07-24T05:20:11;5.90;;;4.47;;
17566;SDS011;8901;52.088;5.084;2023-07-24T05:22:40;7.00;;;4.20;;
17566;SDS011;8901;52.088;5.084;2023-07-24T05:25:07;5.57;;;4.30;;
17566;SDS011;8901;52.088;5.084;2023-07-24T05:27:35;6.60;;;4.50;;
17566;SDS011;8901;52.088;5.084;2023-07-24T05:30:03;7.57;;;4.85;;
17566;SDS011;8901;52.088;5.084;2023-07-24T05:32:30;7.97;;;5.68;;
17566;SDS011;8901;52.088;5.084;2023-07-24T05:34:57;7.10;;;4.90;;
17566;SDS011;8901;52.088;5.084;2023-07-24T05:37:25;5.88;;;4.90;;
17566;SDS011;8901;52.088;5.084;2023-07-24T05:39:53;6.17;;;4.60;;
17566;SDS011;8901;52.088;5.084;2023-07-24T05:42:20;6.80;;;5.00;;
17566;SDS011;8901;52.088;5.084;2023-07-24T05:44:48;7.07;;;4.63;;
17566;SDS011;8901;52.088;5.084;2023-07-24T05:47:15;7.23;;;4.90;;
17566;SDS011;8901;52.088;5.084;2023-07-24T05:49:42;7.47;;;4.97;;
17566;SDS011;8901;52.088;5.084;2023-07-24T05:52:09;6.65;;;5.07;;
17566;SDS011;8901;52.088;5.084;2023-07-24T05:54:36;7.40;;;4.65;;
17566;SDS011;8901;52.088;5.084;2023-07-24T05:57:06;8.27;;;4.63;;
17566;SDS011;8901;52.088;5.084;2023-07-24T05:59:33;7.97;;;5.20;;
17566;SDS011;8901;52.088;5.084;2023-07-24T06:02:00;7.00;;;4.73;;
17566;SDS011;8901;52.088;5.084;2023-07-24T06:04:28;5.28;;;4.40;;
17566;SDS011;8901;52.088;5.084;2023-07-24T06:06:55;9.63;;;5.50;;
17566;SDS011;8901;52.088;5.084;2023-07-24T06:09:22;7.60;;;4.93;;
17566;SDS011;8901;52.088;5.084;2023-07-24T06:11:50;9.03;;;4.93;;
17566;SDS011;8901;52.088;5.084;2023-07-24T06:14:18;8.38;;;4.05;;
17566;SDS011;8901;52.088;5.084;2023-07-24T06:16:45;7.75;;;4.18;;
17566;SDS011;8901;52.088;5.084;2023-07-24T06:19:13;8.05;;;4.45;;
17566;SDS011;8901;52.088;5.084;2023-07-24T06:21:41;7.72;;;4.18;;
17566;SDS011;8901;52.088;5.084;2023-07-24T06:24:08;6.35;;;4.50;;
17566;SDS011;8901;52.088;5.084;2023-07-24T06:26:37;6.10;;;4.00;;
17566;SDS011;8901;52.088;5.084;2023-07-24T06:29:04;5.43;;;4.03;;
17566;SDS011;8901;52.088;5.084;2023-07-24T06:31:33;5.97;;;3.80;;
17566;SDS011;8901;52.088;5.084;2023-07-24T06:33:59;5.65;;;3.42;;
17566;SDS011;8901;52.088;5.084;2023-07-24T06:36:26;6.03;;;3.95;;
17566;SDS011;8901;52.088;5.084;2023-07-24T06:38:53;9.30;;;4.53;;
17566;SDS011;8901;52.088;5.084;2023-07-24T06:41:20;8.05;;;4.47;;
17566;SDS011;8901;52.088;5.084;2023-07-24T06:43:48;9.73;;;4.10;;
17566;SDS011;8901;52.088;5.084;2023-07-24T06:46:15;8.07;;;4.43;;
17566;SDS011;8901;52.088;5.084;2023-07-24T06:48:44;10.27;;;5.57;;
17566;SDS011;8901;52.088;5.084;2023-07-24T06:51:11;5.93;;;4.80;;
17566;SDS011;8901;52.088;5.084;2023-07-24T06:53:38;9.88;;;5.22;;
17566;SDS011;8901;52.088;5.084;2023-07-24T06:56:06;10.30;;;5.00;;
17566;SDS011;8901;52.088;5.084;2023-07-24T06:58:33;8.10;;;5.30;;
17566;SDS011;8901;52.088;5.084;2023-07-24T07:01:00;8.13;;;5.07;;
17566;SDS011;8901;52.088;5.084;2023-07-24T07:03:27;9.32;;;5.45;;
17566;SDS011;8901;52.088;5.084;2023-07-24T07:05:59;5.75;;;4.65;;
17566;SDS011;8901;52.088;5.084;2023-07-24T07:08:26;7.20;;;4.53;;
17566;SDS011;8901;52.088;5.084;2023-07-24T07:10:54;9.70;;;5.13;;
17566;SDS011;8901;52.088;5.084;2023-07-24T07:13:21;7.68;;;4.50;;
17566;SDS011;8901;52.088;5.084;2023-07-24T07:15:49;7.97;;;4.40;;
17566;SDS011;8901;52.088;5.084;2023-07-24T07:18:16;6.68;;;4.22;;
17566;SDS011;8901;52.088;5.084;2023-07-24T07:20:44;7.10;;;4.10;;
17566;SDS011;8901;52.088;5.084;2023-07-24T07:23:14;6.13;;;3.60;;
17566;SDS011;8901;52.088;5.084;2023-07-24T07:25:41;6.07;;;3.92;;
17566;SDS011;8901;52.088;5.084;2023-07-24T07:28:10;6.32;;;3.40;;
17566;SDS011;8901;52.088;5.084;2023-07-24T07:30:37;6.65;;;3.83;;
17566;SDS011;8901;52.088;5.084;2023-07-24T07:33:17;5.55;;;3.63;;
17566;SDS011;8901;52.088;5.084;2023-07-24T07:35:46;8.73;;;4.22;;
17566;SDS011;8901;52.088;5.084;2023-07-24T07:38:15;7.82;;;4.20;;
17566;SDS011;8901;52.088;5.084;2023-07-24T07:40:42;5.78;;;4.40;;
17566;SDS011;8901;52.088;5.084;2023-07-24T07:43:09;7.97;;;4.20;;
17566;SDS011;8901;52.088;5.084;2023-07-24T07:45:37;6.50;;;3.60;;
17566;SDS011;8901;52.088;5.084;2023-07-24T07:48:04;10.32;;;4.03;;
17566;SDS011;8901;52.088;5.084;2023-07-24T07:50:31;10.82;;;4.45;;
17566;SDS011;8901;52.088;5.084;2023-07-24T07:52:59;7.30;;;3.97;;
17566;SDS011;8901;52.088;5.084;2023-07-24T07:55:27;18.10;;;4.93;;
17566;SDS011;8901;52.088;5.084;2023-07-24T07:57:54;20.37;;;5.17;;
17566;SDS011;8901;52.088;5.084;2023-07-24T08:00:21;8.75;;;4.93;;
17566;SDS011;8901;52.088;5.084;2023-07-24T08:02:49;9.57;;;5.18;;
17566;SDS011;8901;52.088;5.084;2023-07-24T08:05:16;7.32;;;5.28;;
17566;SDS011;8901;52.088;5.084;2023-07-24T08:07:43;9.27;;;5.40;;
17566;SDS011;8901;52.088;5.084;2023-07-24T08:10:10;10.30;;;5.30;;
17566;SDS011;8901;52.088;5.084;2023-07-24T08:12:41;9.82;;;5.45;;
17566;SDS011;8901;52.088;5.084;2023-07-24T08:15:09;9.95;;;5.13;;
17566;SDS011;8901;52.088;5.084;2023-07-24T08:17:36;8.77;;;5.10;;
17566;SDS011;8901;52.088;5.084;2023-07-24T08:20:04;9.45;;;5.05;;
17566;SDS011;8901;52.088;5.084;2023-07-24T08:22:31;9.80;;;6.05;;
17566;SDS011;8901;52.088;5.084;2023-07-24T08:24:58;8.65;;;5.15;;
17566;SDS011;8901;52.088;5.084;2023-07-24T08:27:25;9.63;;;5.28;;
17566;SDS011;8901;52.088;5.084;2023-07-24T08:29:54;7.53;;;5.28;;
17566;SDS011;8901;52.088;5.084;2023-07-24T08:32:21;9.48;;;4.43;;
17566;SDS011;8901;52.088;5.084;2023-07-24T08:34:48;6.80;;;4.45;;
17566;SDS011;8901;52.088;5.084;2023-07-24T08:37:16;10.05;;;4.85;;
17566;SDS011;8901;52.088;5.084;2023-07-24T08:39:43;8.00;;;4.68;;
17566;SDS011;8901;52.088;5.084;2023-07-24T08:42:10;6.47;;;4.90;;
17566;SDS011;8901;52.088;5.084;2023-07-24T08:44:38;9.13;;;4.95;;
17566;SDS011;8901;52.088;5.084;2023-07-24T08:47:09;10.48;;;5.00;;
17566;SDS011;8901;52.088;5.084;2023-07-24T08:49:37;7.90;;;4.82;;
17566;SDS011;8901;52.088;5.084;2023-07-24T08:52:06;9.25;;;4.53;;
17566;SDS011;8901;52.088;5.084;2023-07-24T08:54:35;9.70;;;5.20;;
17566;SDS011;8901;52.088;5.084;2023-07-24T08:57:03;12.03;;;4.80;;
17566;SDS011;8901;52.088;5.084;2023-07-24T08:59:31;13.13;;;5.30;;
17566;SDS011;8901;52.088;5.084;2023-07-24T09:01:58;11.70;;;5.57;;
17566;SDS011;8901;52.088;5.084;2023-07-24T09:04:27;9.00;;;4.90;;
17566;SDS011;8901;52.088;5.084;2023-07-24T09:06:54;8.05;;;4.97;;
17566;SDS011;8901;52.088;5.084;2023-07-24T09:09:23;9.77;;;5.22;;
17566;SDS011;8901;52.088;5.084;2023-07-24T09:11:56;7.15;;;5.30;;
17566;SDS011;8901;52.088;5.084;2023-07-24T09:14:25;8.18;;;5.90;;
17566;SDS011;8901;52.088;5.084;2023-07-24T09:17:01;5.72;;;5.03;;
17566;SDS011;8901;52.088;5.084;2023-07-24T09:19:30;11.90;;;5.70;;
17566;SDS011;8901;52.088;5.084;2023-07-24T09:22:06;8.60;;;6.03;;
17566;SDS011;8901;52.088;5.084;2023-07-24T09:24:34;8.93;;;6.00;;
17566;SDS011;8901;52.088;5.084;2023-07-24T09:27:04;8.65;;;5.32;;
17566;SDS011;8901;52.088;5.084;2023-07-24T09:29:32;8.82;;;5.70;;
17566;SDS011;8901;52.088;5.084;2023-07-24T09:31:59;6.43;;;5.28;;
17566;SDS011;8901;52.088;5.084;2023-07-24T09:34:26;8.18;;;5.05;;
17566;SDS011;8901;52.088;5.084;2023-07-24T09:36:55;10.00;;;4.78;;
17566;SDS011;8901;52.088;5.084;2023-07-24T09:39:23;7.18;;;5.25;;
17566;SDS011;8901;52.088;5.084;2023-07-24T09:41:50;12.60;;;5.57;;
17566;SDS011;8901;52.088;5.084;2023-07-24T09:44:17;8.93;;;4.93;;
17566;SDS011;8901;52.088;5.084;2023-07-24T09:46:45;10.85;;;5.63;;
17566;SDS011;8901;52.088;5.084;2023-07-24T09:49:12;9.52;;;5.25;;
17566;SDS011;8901;52.088;5.084;2023-07-24T09:51:40;6.75;;;4.85;;
17566;SDS011;8901;52.088;5.084;2023-07-24T09:54:12;10.13;;;6.13;;
17566;SDS011;8901;52.088;5.084;2023-07-24T09:56:42;6.85;;;5.13;;
17566;SDS011;8901;52.088;5.084;2023-07-24T09:59:10;10.23;;;5.07;;
17566;SDS011;8901;52.088;5.084;2023-07-24T10:01:38;13.13;;;4.95;;
17566;SDS011;8901;52.088;5.084;2023-07-24T10:04:05;12.60;;;5.28;;
17566;SDS011;8901;52.088;5.084;2023-07-24T10:06:34;9.70;;;5.40;;
17566;SDS011;8901;52.088;5.084;2023-07-24T10:09:01;7.07;;;5.32;;
17566;SDS011;8901;52.088;5.084;2023-07-24T10:11:30;11.13;;;5.20;;
17566;SDS011;8901;52.088;5.084;2023-07-24T10:13:57;11.18;;;4.65;;
17566;SDS011;8901;52.088;5.084;2023-07-24T10:16:25;7.32;;;4.60;;
17566;SDS011;8901;52.088;5.084;2023-07-24T10:18:52;7.65;;;5.32;;
17566;SDS011;8901;52.088;5.084;2023-07-24T10:21:25;7.57;;;5.57;;
17566;SDS011;8901;52.088;5.084;2023-07-24T10:23:53;7.60;;;6.15;;
17566;SDS011;8901;52.088;5.084;2023-07-24T10:26:24;9.63;;;5.35;;
17566;SDS011;8901;52.088;5.084;2023-07-24T10:28:53;9.00;;;6.28;;
17566;SDS011;8901;52.088;5.084;2023-07-24T10:31:21;11.05;;;6.32;;
17566;SDS011;8901;52.088;5.084;2023-07-24T10:33:49;8.57;;;5.97;;
17566;SDS011;8901;52.088;5.084;2023-07-24T10:36:17;9.05;;;4.93;;
17566;SDS011;8901;52.088;5.084;2023-07-24T10:38:45;8.38;;;5.22;;
17566;SDS011;8901;52.088;5.084;2023-07-24T10:41:12;7.25;;;5.55;;
17566;SDS011;8901;52.088;5.084;2023-07-24T10:43:41;10.27;;;6.00;;
17566;SDS011;8901;52.088;5.084;2023-07-24T10:46:10;7.25;;;5.45;;
17566;SDS011;8901;52.088;5.084;2023-07-24T10:48:37;8.40;;;4.70;;
17566;SDS011;8901;52.088;5.084;2023-07-24T10:51:09;6.10;;;4.90;;
17566;SDS011;8901;52.088;5.084;2023-07-24T10:53:40;10.85;;;5.20;;
17566;SDS011;8901;52.088;5.084;2023-07-24T10:56:07;10.15;;;6.20;;
17566;SDS011;8901;52.088;5.084;2023-07-24T10:58:35;10.68;;;5.57;;
17566;SDS011;8901;52.088;5.084;2023-07-24T11:01:03;6.63;;;5.40;;
17566;SDS011;8901;52.088;5.084;2023-07-24T11:03:32;8.27;;;5.20;;
17566;SDS011;8901;52.088;5.084;2023-07-24T11:06:02;8.82;;;4.97;;
17566;SDS011;8901;52.088;5.084;2023-07-24T11:08:29;7.75;;;5.45;;
17566;SDS011;8901;52.088;5.084;2023-07-24T11:10:58;11.45;;;5.80;;
17566;SDS011;8901;52.088;5.084;2023-07-24T11:13:26;11.23;;;5.68;;
17566;SDS011;8901;52.088;5.084;2023-07-24T11:15:54;9.02;;;6.30;;
17566;SDS011;8901;52.088;5.084;2023-07-24T11:18:21;8.48;;;5.75;;
17566;SDS011;8901;52.088;5.084;2023-07-24T11:20:53;10.75;;;5.43;;
17566;SDS011;8901;52.088;5.084;2023-07-24T11:23:20;13.77;;;6.07;;
17566;SDS011;8901;52.088;5.084;2023-07-24T11:25:49;8.25;;;5.30;;
17566;SDS011;8901;52.088;5.084;2023-07-24T11:28:17;7.32;;;5.82;;
17566;SDS011;8901;52.088;5.084;2023-07-24T11:30:44;10.38;;;5.45;;
17566;SDS011;8901;52.088;5.084;2023-07-24T11:33:12;10.20;;;5.15;;
17566;SDS011;8901;52.088;5.084;2023-07-24T11:35:40;9.57;;;4.97;;
17566;SDS011;8901;52.088;5.084;2023-07-24T11:38:09;9.07;;;4.95;;
17566;SDS011;8901;52.088;5.084;2023-07-24T11:40:38;7.65;;;4.53;;
17566;SDS011;8901;52.088;5.084;2023-07-24T11:43:15;8.23;;;4.25;;
17566;SDS011;8901;52.088;5.084;2023-07-24T11:45:43;9.35;;;4.82;;
17566;SDS011;8901;52.088;5.084;2023-07-24T11:48:12;8.93;;;4.93;;
17566;SDS011;8901;52.088;5.084;2023-07-24T11:50:54;9.25;;;5.32;;
17566;SDS011;8901;52.088;5.084;2023-07-24T11:53:33;8.93;;;5.53;;
17566;SDS011;8901;52.088;5.084;2023-07-24T11:56:12;6.55;;;5.30;;
17566;SDS011;8901;52.088;5.084;2023-07-24T11:58:46;7.40;;;5.28;;
17566;SDS011;8901;52.088;5.084;2023-07-24T12:01:23;7.18;;;5.28;;
17566;SDS011;8901;52.088;5.084;2023-07-24T12:03:54;12.88;;;5.85;;
17566;SDS011;8901;52.088;5.084;2023-07-24T12:06:34;8.98;;;5.45;;
17566;SDS011;8901;52.088;5.084;2023-07-24T12:09:12;10.07;;;6.00;;
17566;SDS011;8901;52.088;5.084;2023-07-24T12:17:10;12.73;;;6.75;;
17566;SDS011;8901;52.088;5.084;2023-07-24T12:19:45;10.70;;;6.88;;
17566;SDS011;8901;52.088;5.084;2023-07-24T12:22:15;14.15;;;7.70;;
17566;SDS011;8901;52.088;5.084;2023-07-24T12:24:47;10.75;;;7.03;;
17566;SDS011;8901;52.088;5.084;2023-07-24T12:27:26;11.73;;;7.57;;
17566;SDS011;8901;52.088;5.084;2023-07-24T12:30:02;11.32;;;6.90;;
17566;SDS011;8901;52.088;5.084;2023-07-24T12:32:33;12.02;;;7.03;;
17566;SDS011;8901;52.088;5.084;2023-07-24T12:35:11;10.55;;;6.70;;
17566;SDS011;8901;52.088;5.084;2023-07-24T12:37:50;8.27;;;7.10;;
17566;SDS011;8901;52.088;5.084;2023-07-24T12:40:25;10.20;;;7.57;;
17566;SDS011;8901;52.088;5.084;2023-07-24T12:43:01;9.27;;;7.30;;
17566;SDS011;8901;52.088;5.084;2023-07-24T12:45:36;8.02;;;6.80;;
17566;SDS011;8901;52.088;5.084;2023-07-24T12:48:05;10.15;;;6.45;;
17566;SDS011;8901;52.088;5.084;2023-07-24T12:56:14;8.00;;;6.13;;
17566;SDS011;8901;52.088;5.084;2023-07-24T12:58:47;7.82;;;6.22;;
17566;SDS011;8901;52.088;5.084;2023-07-24T13:04:18;10.90;;;7.78;;
17566;SDS011;8901;52.088;5.084;2023-07-24T13:09:51;18.23;;;8.52;;
17566;SDS011;8901;52.088;5.084;2023-07-24T13:15:23;5.30;;;3.22;;
17566;SDS011;8901;52.088;5.084;2023-07-24T13:17:51;4.83;;;3.77;;
17566;SDS011;8901;52.088;5.084;2023-07-24T13:20:18;5.07;;;3.65;;
17566;SDS011;8901;52.088;5.084;2023-07-24T13:25:39;3.80;;;3.00;;
17566;SDS011;8901;52.088;5.084;2023-07-24T13:31:12;4.53;;;3.10;;
17566;SDS011;8901;52.088;5.084;2023-07-24T13:36:34;5.32;;;2.85;;
17566;SDS011;8901;52.088;5.084;2023-07-24T13:39:05;3.10;;;2.80;;
17566;SDS011;8901;52.088;5.084;2023-07-24T13:44:44;4.50;;;2.65;;
17566;SDS011;8901;52.088;5.084;2023-07-24T13:47:14;4.97;;;2.78;;
17566;SDS011;8901;52.088;5.084;2023-07-24T13:49:59;4.05;;;3.20;;
17566;SDS011;8901;52.088;5.084;2023-07-24T13:55:41;5.40;;;3.00;;
17566;SDS011;8901;52.088;5.084;2023-07-24T14:01:08;6.25;;;2.80;;
17566;SDS011;8901;52.088;5.084;2023-07-24T14:06:47;3.95;;;2.90;;
17566;SDS011;8901;52.088;5.084;2023-07-24T14:09:19;3.65;;;3.05;;
17566;SDS011;8901;52.088;5.084;2023-07-24T14:12:03;5.18;;;2.83;;
17566;SDS011;8901;52.088;5.084;2023-07-24T14:14:48;9.73;;;3.40;;
17566;SDS011;8901;52.088;5.084;2023-07-24T14:17:28;4.43;;;2.90;;
17566;SDS011;8901;52.088;5.084;2023-07-24T14:23:01;4.15;;;2.95;;
17566;SDS011;8901;52.088;5.084;2023-07-24T14:25:42;4.28;;;2.60;;
17566;SDS011;8901;52.088;5.084;2023-07-24T14:33:53;5.38;;;2.60;;
17566;SDS011;8901;52.088;5.084;2023-07-24T14:36:32;4.75;;;2.70;;
17566;SDS011;8901;52.088;5.084;2023-07-24T14:39:03;4.40;;;2.50;;
17566;SDS011;8901;52.088;5.084;2023-07-24T14:44:34;4.68;;;2.80;;
17566;SDS011;8901;52.088;5.084;2023-07-24T14:50:05;5.37;;;2.80;;
17566;SDS011;8901;52.088;5.084;2023-07-24T14:55:48;4.10;;;2.70;;
17566;SDS011;8901;52.088;5.084;2023-07-24T14:58:31;5.53;;;2.85;;
17566;SDS011;8901;52.088;5.084;2023-07-24T15:03:44;3.07;;;2.73;;
17566;SDS011;8901;52.088;5.084;2023-07-24T15:09:20;5.13;;;2.77;;
17566;SDS011;8901;52.088;5.084;2023-07-24T15:11:59;4.40;;;2.88;;
17566;SDS011;8901;52.088;5.084;2023-07-24T15:19:45;7.47;;;2.80;;
17566;SDS011;8901;52.088;5.084;2023-07-24T15:22:20;6.53;;;2.80;;
17566;SDS011;8901;52.088;5.084;2023-07-24T15:31:10;4.03;;;2.50;;
17566;SDS011;8901;52.088;5.084;2023-07-24T15:33:38;4.50;;;2.77;;
17566;SDS011;8901;52.088;5.084;2023-07-24T15:36:11;4.17;;;2.80;;
17566;SDS011;8901;52.088;5.084;2023-07-24T15:41:45;3.63;;;2.50;;
17566;SDS011;8901;52.088;5.084;2023-07-24T15:44:22;4.20;;;2.20;;
17566;SDS011;8901;52.088;5.084;2023-07-24T15:52:49;2.93;;;1.80;;
17566;SDS011;8901;52.088;5.084;2023-07-24T15:58:16;2.50;;;1.63;;
17566;SDS011;8901;52.088;5.084;2023-07-24T16:03:29;3.70;;;2.00;;
17566;SDS011;8901;52.088;5.084;2023-07-24T16:08:37;3.47;;;2.27;;
17566;SDS011;8901;52.088;5.084;2023-07-24T16:11:14;1.97;;;1.77;;
17566;SDS011;8901;52.088;5.084;2023-07-24T16:16:18;2.53;;;1.80;;
17566;SDS011;8901;52.088;5.084;2023-07-24T16:18:46;3.27;;;2.00;;
17566;SDS011;8901;52.088;5.084;2023-07-24T16:21:18;4.03;;;2.30;;
17566;SDS011;8901;52.088;5.084;2023-07-24T16:23:47;3.73;;;1.97;;
17566;SDS011;8901;52.088;5.084;2023-07-24T16:26:14;2.47;;;1.90;;
17566;SDS011;8901;52.088;5.084;2023-07-24T16:28:48;2.27;;;1.63;;
17566;SDS011;8901;52.088;5.084;2023-07-24T16:31:34;4.77;;;2.67;;
17566;SDS011;8901;52.088;5.084;2023-07-24T16:39:46;2.67;;;1.93;;
17566;SDS011;8901;52.088;5.084;2023-07-24T16:42:13;4.30;;;2.10;;
17566;SDS011;8901;52.088;5.084;2023-07-24T16:44:41;5.63;;;2.50;;
17566;SDS011;8901;52.088;5.084;2023-07-24T16:47:09;3.67;;;2.17;;
17566;SDS011;8901;52.088;5.084;2023-07-24T16:49:38;3.83;;;2.23;;
17566;SDS011;8901;52.088;5.084;2023-07-24T16:52:07;2.80;;;2.30;;
17566;SDS011;8901;52.088;5.084;2023-07-24T16:54:36;3.30;;;2.27;;
17566;SDS011;8901;52.088;5.084;2023-07-24T16:57:06;3.43;;;2.27;;
17566;SDS011;8901;52.088;5.084;2023-07-24T16:59:34;3.57;;;2.40;;
17566;SDS011;8901;52.088;5.084;2023-07-24T17:02:02;4.23;;;2.37;;
17566;SDS011;8901;52.088;5.084;2023-07-24T17:04:31;3.77;;;2.47;;
17566;SDS011;8901;52.088;5.084;2023-07-24T17:06:58;4.67;;;2.43;;
17566;SDS011;8901;52.088;5.084;2023-07-24T17:09:29;3.67;;;2.40;;
17566;SDS011;8901;52.088;5.084;2023-07-24T17:11:58;4.70;;;2.50;;
17566;SDS011;8901;52.088;5.084;2023-07-24T17:14:35;3.93;;;2.60;;
17566;SDS011;8901;52.088;5.084;2023-07-24T17:17:04;4.47;;;2.43;;
17566;SDS011;8901;52.088;5.084;2023-07-24T17:19:31;3.60;;;2.40;;
17566;SDS011;8901;52.088;5.084;2023-07-24T17:21:59;2.20;;;2.00;;
17566;SDS011;8901;52.088;5.084;2023-07-24T17:24:28;3.23;;;2.57;;
17566;SDS011;8901;52.088;5.084;2023-07-24T17:26:55;3.93;;;2.33;;
17566;SDS011;8901;52.088;5.084;2023-07-24T17:29:24;2.97;;;2.10;;
17566;SDS011;8901;52.088;5.084;2023-07-24T17:31:53;2.87;;;2.20;;
17566;SDS011;8901;52.088;5.084;2023-07-24T17:34:22;5.47;;;2.53;;
17566;SDS011;8901;52.088;5.084;2023-07-24T17:36:51;2.67;;;2.43;;
17566;SDS011;8901;52.088;5.084;2023-07-24T17:39:18;5.00;;;2.20;;
17566;SDS011;8901;52.088;5.084;2023-07-24T17:48:12;3.03;;;2.37;;
17566;SDS011;8901;52.088;5.084;2023-07-24T17:50:39;3.00;;;2.20;;
17566;SDS011;8901;52.088;5.084;2023-07-24T17:53:07;3.83;;;2.40;;
17566;SDS011;8901;52.088;5.084;2023-07-24T17:55:34;2.77;;;2.23;;
17566;SDS011;8901;52.088;5.084;2023-07-24T17:58:01;3.60;;;2.50;;
17566;SDS011;8901;52.088;5.084;2023-07-24T18:00:28;4.30;;;2.30;;